createdAt,value
2022-10-24T00:00:46.418Z,14.50
2022-10-24T00:03:52.216Z,13.45
2022-10-24T00:06:57.912Z,18.20
2022-10-24T00:10:05.295Z,17.40
2022-10-24T00:13:12.403Z,16.48
2022-10-24T00:16:18.791Z,17.20
2022-10-24T00:19:24.516Z,15.27
2022-10-24T00:22:30.043Z,15.10
2022-10-24T00:25:36.425Z,15.75
2022-10-24T00:28:41.970Z,16.58
2022-10-24T00:31:47.889Z,19.60
2022-10-24T00:34:53.505Z,14.88
2022-10-24T00:37:59.548Z,21.67
2022-10-24T00:41:05.138Z,15.50
2022-10-24T00:44:19.867Z,17.23
2022-10-24T00:47:28.143Z,16.13
2022-10-24T00:50:33.937Z,21.08
2022-10-24T00:53:45.342Z,15.70
2022-10-24T00:57:18.447Z,15.98
2022-10-24T01:00:28.805Z,17.80
2022-10-24T01:03:35.321Z,16.85
2022-10-24T01:07:02.945Z,23.15
2022-10-24T01:10:27.129Z,14.30
2022-10-24T01:13:57.030Z,15.10
2022-10-24T01:17:08.787Z,24.00
2022-10-24T01:20:40.928Z,15.02
2022-10-24T01:24:07.924Z,17.33
2022-10-24T01:27:49.077Z,13.05
2022-10-24T01:31:08.098Z,13.13
2022-10-24T01:34:48.258Z,14.73
2022-10-24T01:38:23.069Z,20.67
2022-10-24T01:41:31.480Z,16.42
2022-10-24T01:44:50.486Z,13.70
2022-10-24T01:47:59.428Z,15.10
2022-10-24T01:51:07.554Z,13.02
2022-10-24T01:54:14.166Z,15.98
2022-10-24T01:57:19.696Z,18.05
2022-10-24T02:00:26.797Z,14.07
2022-10-24T02:03:39.726Z,17.17
2022-10-24T02:06:47.420Z,13.32
2022-10-24T02:10:08.706Z,17.20
2022-10-24T02:13:30.116Z,24.13
2022-10-24T02:16:35.881Z,13.70
2022-10-24T02:19:41.644Z,19.45
2022-10-24T02:22:58.561Z,16.00
2022-10-24T02:26:09.767Z,18.92
2022-10-24T02:29:22.881Z,20.20
2022-10-24T02:32:39.085Z,16.52
2022-10-24T02:35:47.879Z,18.20
2022-10-24T02:38:56.607Z,20.92
2022-10-24T02:42:05.163Z,15.82
2022-10-24T02:45:13.153Z,19.80
2022-10-24T02:48:23.757Z,16.27
2022-10-24T02:54:37.670Z,17.10
2022-10-24T02:57:43.281Z,19.35
2022-10-24T03:00:49.050Z,17.67
2022-10-24T03:03:54.365Z,15.35
2022-10-24T03:07:00.101Z,17.75
2022-10-24T03:10:06.497Z,19.60
2022-10-24T03:13:11.929Z,25.98
2022-10-24T03:16:17.761Z,18.52
2022-10-24T03:19:24.148Z,15.43
2022-10-24T03:22:30.748Z,18.70
2022-10-24T03:25:36.820Z,17.80
2022-10-24T03:28:42.499Z,25.05
2022-10-24T03:31:48.244Z,20.17
2022-10-24T03:34:53.967Z,17.00
2022-10-24T03:37:59.908Z,25.60
2022-10-24T03:41:05.810Z,19.52
2022-10-24T03:44:11.216Z,22.55
2022-10-24T03:47:16.986Z,20.33
2022-10-24T03:50:22.600Z,17.75
2022-10-24T03:53:27.855Z,19.35
2022-10-24T03:56:33.320Z,16.60
2022-10-24T03:59:39.304Z,24.60
2022-10-24T04:02:45.272Z,18.08
2022-10-24T04:05:51.441Z,17.70
2022-10-24T04:08:58.183Z,29.92
2022-10-24T04:12:04.432Z,22.45
2022-10-24T04:15:10.813Z,24.45
2022-10-24T04:18:16.349Z,25.48
2022-10-24T04:21:22.247Z,19.17
2022-10-24T04:24:27.496Z,22.65
2022-10-24T04:27:33.051Z,21.45
2022-10-24T04:30:38.629Z,21.35
2022-10-24T04:33:44.197Z,21.25
2022-10-24T04:36:49.801Z,21.55
2022-10-24T04:39:55.669Z,27.90
2022-10-24T04:43:01.639Z,21.67
2022-10-24T04:46:07.344Z,23.67
2022-10-24T04:49:13.156Z,26.30
2022-10-24T04:52:18.752Z,26.92
2022-10-24T04:55:24.076Z,23.98
2022-10-24T04:58:29.242Z,17.65
2022-10-24T05:01:34.609Z,25.55
2022-10-24T05:04:40.646Z,16.85
2022-10-24T05:07:47.314Z,18.42
2022-10-24T05:10:52.762Z,20.15
2022-10-24T05:13:58.639Z,21.23
2022-10-24T05:17:04.236Z,22.23
2022-10-24T05:20:10.346Z,22.33
2022-10-24T05:23:15.401Z,19.77
2022-10-24T05:26:20.578Z,22.25
2022-10-24T05:29:26.105Z,30.25
2022-10-24T05:32:33.750Z,20.48
2022-10-24T05:35:42.452Z,22.50
2022-10-24T05:38:47.882Z,18.05
2022-10-24T05:41:55.284Z,20.95
2022-10-24T05:45:01.300Z,20.42
2022-10-24T05:48:06.959Z,19.10
2022-10-24T05:51:12.714Z,20.83
2022-10-24T05:54:18.223Z,19.02
2022-10-24T05:57:23.873Z,24.42
2022-10-24T06:00:28.961Z,25.52
2022-10-24T06:03:34.893Z,29.13
2022-10-24T06:06:43.007Z,31.05
2022-10-24T06:09:48.672Z,33.05
2022-10-24T06:12:53.939Z,32.05
2022-10-24T06:15:59.856Z,38.80
2022-10-24T06:19:05.560Z,33.17
2022-10-24T06:22:11.158Z,27.67
2022-10-24T06:25:17.909Z,36.42
2022-10-24T06:28:23.678Z,30.75
2022-10-24T06:31:29.362Z,27.02
2022-10-24T06:34:36.002Z,29.08
2022-10-24T06:37:44.399Z,40.78
2022-10-24T06:40:52.771Z,21.33
2022-10-24T06:43:58.381Z,25.88
2022-10-24T06:47:03.928Z,33.83
2022-10-24T06:50:10.137Z,20.88
2022-10-24T06:53:15.476Z,29.80
2022-10-24T06:56:21.081Z,29.98
2022-10-24T06:59:27.539Z,33.20
2022-10-24T07:02:33.051Z,28.02
2022-10-24T07:05:38.386Z,29.45
2022-10-24T07:08:44.324Z,23.38
2022-10-24T07:11:49.841Z,22.60
2022-10-24T07:14:55.477Z,21.70
2022-10-24T07:18:00.903Z,29.67
2022-10-24T07:21:09.975Z,26.58
2022-10-24T07:24:15.511Z,22.25
2022-10-24T07:27:22.442Z,27.52
2022-10-24T07:30:27.927Z,21.20
2022-10-24T07:33:34.837Z,21.80
2022-10-24T07:36:43.806Z,20.42
2022-10-24T07:39:50.041Z,20.58
2022-10-24T07:42:55.572Z,21.27
2022-10-24T07:49:11.671Z,25.55
2022-10-24T07:52:17.000Z,25.27
2022-10-24T07:55:22.801Z,19.80
2022-10-24T07:58:29.577Z,18.50
2022-10-24T08:01:35.118Z,25.42
2022-10-24T08:04:40.796Z,19.02
2022-10-24T08:07:56.311Z,22.75
2022-10-24T08:11:18.903Z,29.08
2022-10-24T08:17:29.564Z,24.27
2022-10-24T08:20:35.284Z,18.98
2022-10-24T08:23:44.519Z,26.85
2022-10-24T08:26:50.638Z,19.38
2022-10-24T08:29:56.136Z,25.05
2022-10-24T08:33:01.685Z,22.85
2022-10-24T08:36:33.507Z,23.38
2022-10-24T08:39:39.498Z,27.90
2022-10-24T08:42:46.468Z,28.23
2022-10-24T08:46:11.433Z,21.02
2022-10-24T08:49:50.364Z,24.27
2022-10-24T08:53:06.506Z,39.95
2022-10-24T08:56:13.205Z,29.55
2022-10-24T08:59:18.837Z,30.73
2022-10-24T09:02:29.372Z,21.80
2022-10-24T09:05:45.931Z,26.77
2022-10-24T09:09:11.372Z,19.63
2022-10-24T09:12:21.763Z,28.38
2022-10-24T09:15:31.138Z,26.93
2022-10-24T09:18:43.815Z,31.63
2022-10-24T09:21:51.434Z,24.50
2022-10-24T09:25:04.190Z,24.77
2022-10-24T09:28:13.139Z,24.88
2022-10-24T09:31:22.405Z,22.23
2022-10-24T09:34:27.527Z,26.63
2022-10-24T09:37:47.398Z,31.65
2022-10-24T09:40:55.955Z,27.63
2022-10-24T09:44:02.387Z,28.08
2022-10-24T09:47:25.771Z,25.17
2022-10-24T09:50:35.557Z,28.90
2022-10-24T09:54:18.577Z,23.17
2022-10-24T09:57:26.811Z,23.20
2022-10-24T10:00:37.244Z,29.35
2022-10-24T10:03:43.417Z,27.27
2022-10-24T10:06:50.948Z,29.08
2022-10-24T10:09:59.905Z,29.55
2022-10-24T10:13:16.420Z,21.17
2022-10-24T10:16:26.400Z,21.00
2022-10-24T10:19:38.859Z,28.02
2022-10-24T10:22:43.938Z,25.17
2022-10-24T10:25:49.582Z,28.63
2022-10-24T10:29:01.809Z,26.45
2022-10-24T10:32:23.209Z,27.08
2022-10-24T10:42:35.721Z,26.38
2022-10-24T10:45:42.567Z,27.50
2022-10-24T10:49:17.173Z,19.25
2022-10-24T10:52:30.240Z,24.88
2022-10-24T10:55:48.319Z,24.95
2022-10-24T10:59:19.622Z,21.70
2022-10-24T11:02:56.095Z,25.98
2022-10-24T11:06:09.224Z,25.33
2022-10-24T11:09:23.822Z,25.30
2022-10-24T11:12:32.186Z,34.17
2022-10-24T11:15:42.883Z,25.75
2022-10-24T11:18:53.054Z,25.15
2022-10-24T11:22:03.453Z,23.70
2022-10-24T11:25:41.707Z,23.97
2022-10-24T11:28:54.661Z,28.38
2022-10-24T11:32:34.683Z,25.95
2022-10-24T11:35:53.326Z,26.30
2022-10-24T11:39:22.771Z,24.08
2022-10-24T11:42:40.647Z,27.90
2022-10-24T11:46:09.906Z,20.83
2022-10-24T11:49:29.404Z,21.17
2022-10-24T11:52:45.448Z,20.90
2022-10-24T11:56:12.479Z,18.63
2022-10-24T11:59:24.682Z,21.60
2022-10-24T12:02:42.053Z,17.65
2022-10-24T12:06:09.184Z,22.83
2022-10-24T12:09:30.855Z,26.67
2022-10-24T12:12:45.178Z,28.98
2022-10-24T12:16:02.618Z,25.20
2022-10-24T12:19:18.721Z,18.35
2022-10-24T12:22:37.575Z,21.08
2022-10-24T12:25:47.302Z,18.33
2022-10-24T12:29:01.344Z,20.13
2022-10-24T12:32:51.662Z,32.72
2022-10-24T12:35:58.789Z,23.20
2022-10-24T12:39:04.913Z,23.15
2022-10-24T12:42:20.317Z,19.70
2022-10-24T12:45:33.463Z,24.38
2022-10-24T12:48:39.260Z,25.25
2022-10-24T12:51:45.052Z,25.80
2022-10-24T12:54:50.572Z,15.60
2022-10-24T12:57:56.996Z,25.88
2022-10-24T13:01:08.245Z,24.02
2022-10-24T13:04:13.266Z,25.75
2022-10-24T13:07:47.151Z,19.70
2022-10-24T13:11:13.215Z,19.25
2022-10-24T13:14:52.899Z,30.48
2022-10-24T13:18:10.174Z,25.83
2022-10-24T13:24:41.139Z,25.33
2022-10-24T13:27:46.626Z,22.83
2022-10-24T13:31:17.805Z,26.63
2022-10-24T13:34:29.908Z,19.55
2022-10-24T13:37:42.813Z,17.05
2022-10-24T13:40:48.606Z,15.57
2022-10-24T13:44:02.928Z,28.27
2022-10-24T13:47:17.154Z,18.20
2022-10-24T13:50:34.945Z,14.88
2022-10-24T13:53:53.597Z,19.95
2022-10-24T13:57:02.002Z,18.33
2022-10-24T14:00:24.592Z,15.32
2022-10-24T14:03:33.476Z,18.85
2022-10-24T14:06:38.860Z,22.40
2022-10-24T14:09:45.191Z,17.75
2022-10-24T14:12:57.158Z,23.95
2022-10-24T14:16:07.139Z,20.33
2022-10-24T14:19:17.692Z,17.77
2022-10-24T14:22:30.806Z,14.82
2022-10-24T14:25:38.193Z,17.13
2022-10-24T14:28:58.664Z,19.67
2022-10-24T14:32:08.193Z,17.50
2022-10-24T14:35:14.859Z,17.77
2022-10-24T14:38:22.100Z,20.83
2022-10-24T14:41:30.707Z,20.58
2022-10-24T14:44:38.484Z,19.90
2022-10-24T14:47:52.855Z,19.60
2022-10-24T14:51:11.501Z,13.05
2022-10-24T14:54:21.568Z,16.20
2022-10-24T14:57:29.025Z,14.33
2022-10-24T15:00:40.364Z,20.40
2022-10-24T15:04:29.463Z,13.57
2022-10-24T15:07:44.933Z,22.08
2022-10-24T15:11:22.225Z,21.33
2022-10-24T15:14:36.679Z,18.52
2022-10-24T15:17:42.251Z,21.05
2022-10-24T15:20:50.988Z,21.63
2022-10-24T15:23:59.768Z,16.50
2022-10-24T15:27:13.778Z,19.65
2022-10-24T15:30:21.866Z,17.67
2022-10-24T15:33:27.126Z,19.00
2022-10-24T15:36:36.493Z,21.92
2022-10-24T15:39:42.747Z,17.83
2022-10-24T15:42:48.596Z,16.17
2022-10-24T15:45:53.936Z,16.92
2022-10-24T15:48:58.941Z,24.10
2022-10-24T15:52:13.258Z,19.30
2022-10-24T15:55:23.133Z,19.83
2022-10-24T15:58:29.180Z,20.95
2022-10-24T16:01:52.356Z,19.67
2022-10-24T16:04:58.438Z,22.58
2022-10-24T16:08:05.484Z,22.30
2022-10-24T16:11:12.563Z,15.95
2022-10-24T16:14:21.530Z,23.25
2022-10-24T16:17:27.284Z,23.55
2022-10-24T16:20:32.942Z,22.02
2022-10-24T16:23:38.325Z,23.65
2022-10-24T16:26:43.674Z,25.58
2022-10-24T16:29:49.556Z,25.95
2022-10-24T16:32:55.789Z,26.27
2022-10-24T16:36:01.453Z,24.40
2022-10-24T16:39:08.434Z,28.85
2022-10-24T16:42:13.765Z,25.63
2022-10-24T16:45:20.920Z,29.05
2022-10-24T16:48:27.717Z,27.42
2022-10-24T16:51:33.440Z,29.08
2022-10-24T16:54:39.875Z,24.60
2022-10-24T16:57:45.483Z,24.15
2022-10-24T17:00:51.396Z,22.30
2022-10-24T17:03:56.930Z,21.20
2022-10-24T17:07:04.695Z,20.88
2022-10-24T17:10:11.978Z,25.35
2022-10-24T17:13:17.515Z,22.58
2022-10-24T17:16:23.076Z,29.25
2022-10-24T17:19:28.910Z,32.03
2022-10-24T17:22:34.593Z,30.75
2022-10-24T17:25:40.653Z,25.83
2022-10-24T17:28:45.952Z,33.75
2022-10-24T17:31:52.131Z,25.40
2022-10-24T17:34:59.960Z,28.17
2022-10-24T17:38:14.372Z,35.97
2022-10-24T17:41:28.306Z,30.58
2022-10-24T17:44:34.119Z,29.90
2022-10-24T17:47:39.452Z,41.22
2022-10-24T17:50:45.671Z,41.22
2022-10-24T17:53:52.183Z,32.50
2022-10-24T17:56:57.676Z,40.28
2022-10-24T18:00:03.911Z,37.67
2022-10-24T18:03:16.660Z,35.83
2022-10-24T18:06:22.653Z,38.20
2022-10-24T18:09:29.972Z,33.28
2022-10-24T18:12:38.623Z,37.80
2022-10-24T18:15:44.083Z,40.72
2022-10-24T18:18:50.077Z,35.33
2022-10-24T18:21:56.059Z,41.63
2022-10-24T18:25:02.191Z,41.45
2022-10-24T18:28:07.845Z,41.63
2022-10-24T18:31:19.234Z,42.28
2022-10-24T18:34:24.859Z,40.58
2022-10-24T18:37:30.194Z,43.50
2022-10-24T18:40:38.464Z,38.00
2022-10-24T18:43:44.109Z,43.42
2022-10-24T18:46:51.978Z,44.00
2022-10-24T18:49:57.676Z,39.13
2022-10-24T18:53:11.075Z,38.50
2022-10-24T18:56:18.684Z,49.53
2022-10-24T18:59:26.878Z,45.22
2022-10-24T19:02:38.329Z,39.40
2022-10-24T19:05:51.990Z,45.28
2022-10-24T19:09:00.276Z,49.85
2022-10-24T19:12:07.321Z,42.22
2022-10-24T19:15:14.025Z,47.05
2022-10-24T19:18:19.452Z,44.47
2022-10-24T19:21:26.370Z,50.45
2022-10-24T19:24:32.766Z,42.65
2022-10-24T19:27:38.732Z,44.03
2022-10-24T19:30:45.794Z,42.95
2022-10-24T19:33:53.886Z,47.72
2022-10-24T19:37:00.461Z,53.13
2022-10-24T19:40:07.088Z,45.17
2022-10-24T19:43:13.029Z,50.40
2022-10-24T19:46:20.300Z,45.58
2022-10-24T19:49:26.806Z,47.58
2022-10-24T19:52:32.515Z,54.95
2022-10-24T19:55:39.310Z,46.78
2022-10-24T19:58:45.448Z,48.80
2022-10-24T20:01:50.908Z,64.05
2022-10-24T20:04:56.359Z,47.45
2022-10-24T20:08:02.164Z,45.30
2022-10-24T20:11:09.301Z,49.47
2022-10-24T20:14:15.658Z,52.60
2022-10-24T20:17:21.103Z,62.05
2022-10-24T20:20:26.751Z,54.85
2022-10-24T20:23:33.158Z,55.78
2022-10-24T20:26:38.697Z,47.78
2022-10-24T20:29:44.216Z,44.47
2022-10-24T20:32:49.819Z,54.78
2022-10-24T20:35:59.806Z,48.95
2022-10-24T20:39:06.735Z,46.40
2022-10-24T20:42:12.460Z,55.35
2022-10-24T20:45:21.955Z,53.08
2022-10-24T20:48:29.020Z,54.35
2022-10-24T20:51:34.528Z,45.55
2022-10-24T20:54:39.781Z,50.47
2022-10-24T20:57:45.199Z,48.88
2022-10-24T21:00:50.909Z,62.88
2022-10-24T21:03:59.127Z,53.15
2022-10-24T21:07:04.579Z,52.90
2022-10-24T21:10:10.268Z,52.10
2022-10-24T21:13:15.832Z,47.85
2022-10-24T21:16:22.062Z,50.75
2022-10-24T21:19:27.869Z,60.55
2022-10-24T21:22:33.422Z,54.50
2022-10-24T21:25:39.225Z,57.63
2022-10-24T21:28:44.710Z,56.92
2022-10-24T21:31:51.943Z,55.88
2022-10-24T21:34:57.970Z,56.42
2022-10-24T21:38:03.636Z,50.30
2022-10-24T21:41:11.359Z,53.85
2022-10-24T21:44:16.634Z,50.40
2022-10-24T21:47:22.431Z,54.13
2022-10-24T21:50:27.862Z,48.60
2022-10-24T21:53:42.130Z,52.63
2022-10-24T21:56:48.566Z,60.95
2022-10-24T21:59:54.026Z,54.85
2022-10-24T22:02:59.386Z,58.13
2022-10-24T22:06:04.726Z,55.67
2022-10-24T22:09:19.069Z,60.13
2022-10-24T22:12:24.808Z,56.53
2022-10-24T22:15:30.518Z,55.88
2022-10-24T22:18:37.107Z,58.60
2022-10-24T22:21:48.581Z,52.85
2022-10-24T22:24:54.357Z,65.25
2022-10-24T22:28:00.017Z,60.20
2022-10-24T22:31:06.325Z,53.80
2022-10-24T22:34:16.764Z,56.50
2022-10-24T22:37:32.037Z,55.80
2022-10-24T22:40:38.071Z,53.38
2022-10-24T22:43:43.880Z,62.30
2022-10-24T22:47:01.423Z,53.08
2022-10-24T22:50:15.763Z,60.72
2022-10-24T22:53:27.496Z,53.65
2022-10-24T22:56:35.755Z,58.80
2022-10-24T22:59:41.438Z,62.83
2022-10-24T23:02:47.541Z,65.05
2022-10-24T23:06:04.677Z,71.05
2022-10-24T23:09:11.663Z,52.70
2022-10-24T23:12:20.374Z,57.47
2022-10-24T23:15:26.333Z,65.80
2022-10-24T23:18:31.590Z,67.63
2022-10-24T23:21:43.347Z,61.88
2022-10-24T23:24:50.492Z,72.22
2022-10-24T23:28:08.254Z,69.97
2022-10-24T23:31:13.956Z,82.05
2022-10-24T23:34:19.973Z,69.07
2022-10-24T23:37:41.058Z,60.50
2022-10-24T23:40:47.168Z,68.55
2022-10-24T23:43:52.970Z,75.85
2022-10-24T23:47:27.070Z,66.93
2022-10-24T23:51:16.115Z,67.03
2022-10-24T23:54:26.526Z,69.88
2022-10-24T23:57:32.174Z,64.15
